sensor_id;sensor_type;location;lat;lon;timestamp;temperature;humidity
12152;DHT22;6139;51.274;7.128;2023-07-13T00:00:53;16.90;99.90
12152;DHT22;6139;51.274;7.128;2023-07-13T00:01:54;16.90;99.90
12152;DHT22;6139;51.274;7.128;2023-07-13T00:02:57;16.80;99.90
12152;DHT22;6139;51.274;7.128;2023-07-13T00:03:57;16.80;99.90
12152;DHT22;6139;51.274;7.128;2023-07-13T00:04:59;16.80;99.90
12152;DHT22;6139;51.274;7.128;2023-07-13T00:06:01;16.80;99.90
12152;DHT22;6139;51.274;7.128;2023-07-13T00:07:04;16.80;99.90
12152;DHT22;6139;51.274;7.128;2023-07-13T00:08:05;16.80;1.00
12152;DHT22;6139;51.274;7.128;2023-07-13T00:09:09;16.80;99.90
12152;DHT22;6139;51.274;7.128;2023-07-13T00:10:10;16.70;99.90
12152;DHT22;6139;51.274;7.128;2023-07-13T00:11:12;16.70;1.00
12152;DHT22;6139;51.274;7.128;2023-07-13T00:12:25;16.70;99.90
12152;DHT22;6139;51.274;7.128;2023-07-13T00:13:28;16.70;99.90
12152;DHT22;6139;51.274;7.128;2023-07-13T00:14:30;16.70;99.90
12152;DHT22;6139;51.274;7.128;2023-07-13T00:15:32;16.70;99.90
12152;DHT22;6139;51.274;7.128;2023-07-13T00:16:33;16.70;99.90
12152;DHT22;6139;51.274;7.128;2023-07-13T00:17:35;16.70;99.90
12152;DHT22;6139;51.274;7.128;2023-07-13T00:18:39;16.70;1.00
12152;DHT22;6139;51.274;7.128;2023-07-13T00:19:40;16.60;1.00
12152;DHT22;6139;51.274;7.128;2023-07-13T00:20:41;16.60;1.00
12152;DHT22;6139;51.274;7.128;2023-07-13T00:21:44;16.60;1.00
12152;DHT22;6139;51.274;7.128;2023-07-13T00:22:45;16.60;1.00
12152;DHT22;6139;51.274;7.128;2023-07-13T00:23:48;16.60;1.00
12152;DHT22;6139;51.274;7.128;2023-07-13T00:24:51;16.60;1.00
12152;DHT22;6139;51.274;7.128;2023-07-13T00:25:53;16.60;99.90
12152;DHT22;6139;51.274;7.128;2023-07-13T00:26:54;16.50;1.00
12152;DHT22;6139;51.274;7.128;2023-07-13T00:27:56;16.50;1.00
12152;DHT22;6139;51.274;7.128;2023-07-13T00:28:57;16.50;1.00
12152;DHT22;6139;51.274;7.128;2023-07-13T00:29:58;16.50;1.00
12152;DHT22;6139;51.274;7.128;2023-07-13T00:31:00;16.50;1.00
12152;DHT22;6139;51.274;7.128;2023-07-13T00:32:02;16.50;1.00
12152;DHT22;6139;51.274;7.128;2023-07-13T00:33:04;16.50;1.00
12152;DHT22;6139;51.274;7.128;2023-07-13T00:34:05;16.50;1.00
12152;DHT22;6139;51.274;7.128;2023-07-13T00:35:08;16.50;1.00
12152;DHT22;6139;51.274;7.128;2023-07-13T00:36:10;16.40;1.00
12152;DHT22;6139;51.274;7.128;2023-07-13T00:37:11;16.40;1.00
12152;DHT22;6139;51.274;7.128;2023-07-13T00:38:13;16.40;1.00
12152;DHT22;6139;51.274;7.128;2023-07-13T00:39:14;16.40;1.00
12152;DHT22;6139;51.274;7.128;2023-07-13T00:40:18;16.40;1.00
12152;DHT22;6139;51.274;7.128;2023-07-13T00:41:20;16.40;1.00
12152;DHT22;6139;51.274;7.128;2023-07-13T00:42:22;16.40;1.00
12152;DHT22;6139;51.274;7.128;2023-07-13T00:43:27;16.40;1.00
12152;DHT22;6139;51.274;7.128;2023-07-13T00:44:30;16.40;1.00
12152;DHT22;6139;51.274;7.128;2023-07-13T00:46:11;16.40;1.00
12152;DHT22;6139;51.274;7.128;2023-07-13T00:47:13;16.40;1.00
12152;DHT22;6139;51.274;7.128;2023-07-13T00:48:16;16.30;1.00
12152;DHT22;6139;51.274;7.128;2023-07-13T00:49:23;16.30;1.00
12152;DHT22;6139;51.274;7.128;2023-07-13T00:50:24;16.20;1.00
12152;DHT22;6139;51.274;7.128;2023-07-13T00:51:31;16.20;1.00
12152;DHT22;6139;51.274;7.128;2023-07-13T00:52:35;16.20;1.00
12152;DHT22;6139;51.274;7.128;2023-07-13T00:53:38;16.20;1.00
12152;DHT22;6139;51.274;7.128;2023-07-13T00:54:43;16.20;1.00
12152;DHT22;6139;51.274;7.128;2023-07-13T00:55:49;16.10;1.00
12152;DHT22;6139;51.274;7.128;2023-07-13T00:56:54;16.10;1.00
12152;DHT22;6139;51.274;7.128;2023-07-13T00:57:57;16.10;1.00
12152;DHT22;6139;51.274;7.128;2023-07-13T00:58:59;16.10;1.00
12152;DHT22;6139;51.274;7.128;2023-07-13T01:00:04;16.10;2.00
12152;DHT22;6139;51.274;7.128;2023-07-13T01:01:10;16.00;1.00
12152;DHT22;6139;51.274;7.128;2023-07-13T01:02:13;16.10;1.00
12152;DHT22;6139;51.274;7.128;2023-07-13T01:03:16;16.00;1.00
12152;DHT22;6139;51.274;7.128;2023-07-13T01:04:18;16.00;1.00
12152;DHT22;6139;51.274;7.128;2023-07-13T01:05:23;16.00;1.00
12152;DHT22;6139;51.274;7.128;2023-07-13T01:06:25;16.00;1.00
12152;DHT22;6139;51.274;7.128;2023-07-13T01:07:27;16.00;1.00
12152;DHT22;6139;51.274;7.128;2023-07-13T01:08:31;16.00;1.00
12152;DHT22;6139;51.274;7.128;2023-07-13T01:09:35;16.00;1.00
12152;DHT22;6139;51.274;7.128;2023-07-13T01:10:36;16.00;1.00
12152;DHT22;6139;51.274;7.128;2023-07-13T01:11:42;16.00;1.00
12152;DHT22;6139;51.274;7.128;2023-07-13T01:12:42;16.00;1.00
12152;DHT22;6139;51.274;7.128;2023-07-13T01:13:44;16.00;1.00
12152;DHT22;6139;51.274;7.128;2023-07-13T01:14:46;16.00;1.00
12152;DHT22;6139;51.274;7.128;2023-07-13T01:15:49;16.00;1.00
12152;DHT22;6139;51.274;7.128;2023-07-13T01:16:50;16.00;1.00
12152;DHT22;6139;51.274;7.128;2023-07-13T01:17:52;15.90;1.00
12152;DHT22;6139;51.274;7.128;2023-07-13T01:18:54;15.90;1.00
12152;DHT22;6139;51.274;7.128;2023-07-13T01:19:59;15.90;1.00
12152;DHT22;6139;51.274;7.128;2023-07-13T01:21:04;15.90;1.00
12152;DHT22;6139;51.274;7.128;2023-07-13T01:22:09;15.90;1.00
12152;DHT22;6139;51.274;7.128;2023-07-13T01:23:12;15.90;1.00
12152;DHT22;6139;51.274;7.128;2023-07-13T01:24:14;15.90;1.00
12152;DHT22;6139;51.274;7.128;2023-07-13T01:25:15;15.90;1.00
12152;DHT22;6139;51.274;7.128;2023-07-13T01:26:18;15.90;1.00
12152;DHT22;6139;51.274;7.128;2023-07-13T01:27:21;15.90;1.00
12152;DHT22;6139;51.274;7.128;2023-07-13T01:28:26;15.90;1.00
12152;DHT22;6139;51.274;7.128;2023-07-13T01:29:28;15.90;1.00
12152;DHT22;6139;51.274;7.128;2023-07-13T01:30:30;15.80;1.00
12152;DHT22;6139;51.274;7.128;2023-07-13T01:31:32;15.80;14.80
12152;DHT22;6139;51.274;7.128;2023-07-13T01:32:34;15.80;45.40
12152;DHT22;6139;51.274;7.128;2023-07-13T01:33:36;15.80;60.00
12152;DHT22;6139;51.274;7.128;2023-07-13T01:34:39;15.80;56.90
12152;DHT22;6139;51.274;7.128;2023-07-13T01:35:43;15.80;49.40
12152;DHT22;6139;51.274;7.128;2023-07-13T01:36:46;15.80;60.80
12152;DHT22;6139;51.274;7.128;2023-07-13T01:37:47;15.80;19.10
12152;DHT22;6139;51.274;7.128;2023-07-13T01:38:49;15.80;13.80
12152;DHT22;6139;51.274;7.128;2023-07-13T01:39:51;15.80;54.90
12152;DHT22;6139;51.274;7.128;2023-07-13T01:40:52;15.80;1.00
12152;DHT22;6139;51.274;7.128;2023-07-13T01:41:55;15.80;15.10
12152;DHT22;6139;51.274;7.128;2023-07-13T01:42:56;15.80;13.90
12152;DHT22;6139;51.274;7.128;2023-07-13T01:43:57;15.70;1.00
12152;DHT22;6139;51.274;7.128;2023-07-13T01:44:59;15.70;26.10
12152;DHT22;6139;51.274;7.128;2023-07-13T01:46:00;15.70;1.80
12152;DHT22;6139;51.274;7.128;2023-07-13T01:47:02;15.80;6.00
12152;DHT22;6139;51.274;7.128;2023-07-13T01:48:04;15.80;18.70
12152;DHT22;6139;51.274;7.128;2023-07-13T01:49:07;15.80;1.00
12152;DHT22;6139;51.274;7.128;2023-07-13T01:50:09;15.80;1.00
12152;DHT22;6139;51.274;7.128;2023-07-13T01:51:10;15.80;1.00
12152;DHT22;6139;51.274;7.128;2023-07-13T01:52:14;15.80;60.60
12152;DHT22;6139;51.274;7.128;2023-07-13T01:53:15;15.70;83.80
12152;DHT22;6139;51.274;7.128;2023-07-13T01:54:17;15.70;91.50
12152;DHT22;6139;51.274;7.128;2023-07-13T01:55:18;15.70;99.90
12152;DHT22;6139;51.274;7.128;2023-07-13T01:56:20;15.70;99.90
12152;DHT22;6139;51.274;7.128;2023-07-13T01:57:21;15.70;66.70
12152;DHT22;6139;51.274;7.128;2023-07-13T01:58:23;15.80;21.30
12152;DHT22;6139;51.274;7.128;2023-07-13T01:59:24;15.70;34.00
12152;DHT22;6139;51.274;7.128;2023-07-13T02:00:26;15.70;70.60
12152;DHT22;6139;51.274;7.128;2023-07-13T02:01:27;15.70;99.90
12152;DHT22;6139;51.274;7.128;2023-07-13T02:02:29;15.70;99.90
12152;DHT22;6139;51.274;7.128;2023-07-13T02:03:30;15.70;99.90
12152;DHT22;6139;51.274;7.128;2023-07-13T02:04:33;15.70;99.90
12152;DHT22;6139;51.274;7.128;2023-07-13T02:05:34;15.60;99.90
12152;DHT22;6139;51.274;7.128;2023-07-13T02:06:37;15.60;99.90
12152;DHT22;6139;51.274;7.128;2023-07-13T02:07:40;15.60;99.90
12152;DHT22;6139;51.274;7.128;2023-07-13T02:08:42;15.60;99.90
12152;DHT22;6139;51.274;7.128;2023-07-13T02:09:43;15.60;99.90
12152;DHT22;6139;51.274;7.128;2023-07-13T02:10:44;15.60;99.90
12152;DHT22;6139;51.274;7.128;2023-07-13T02:11:46;15.60;99.90
12152;DHT22;6139;51.274;7.128;2023-07-13T02:12:48;15.60;99.90
12152;DHT22;6139;51.274;7.128;2023-07-13T02:13:50;15.50;99.90
12152;DHT22;6139;51.274;7.128;2023-07-13T02:14:52;15.50;99.90
12152;DHT22;6139;51.274;7.128;2023-07-13T02:15:53;15.50;99.90
12152;DHT22;6139;51.274;7.128;2023-07-13T02:16:55;15.50;99.90
12152;DHT22;6139;51.274;7.128;2023-07-13T02:17:56;15.50;99.90
12152;DHT22;6139;51.274;7.128;2023-07-13T02:18:59;15.50;99.90
12152;DHT22;6139;51.274;7.128;2023-07-13T02:20:02;15.50;99.90
12152;DHT22;6139;51.274;7.128;2023-07-13T02:21:04;15.50;99.90
12152;DHT22;6139;51.274;7.128;2023-07-13T02:22:06;15.50;99.90
12152;DHT22;6139;51.274;7.128;2023-07-13T02:23:08;15.50;99.90
12152;DHT22;6139;51.274;7.128;2023-07-13T02:24:10;15.50;99.90
12152;DHT22;6139;51.274;7.128;2023-07-13T02:25:16;15.40;99.90
12152;DHT22;6139;51.274;7.128;2023-07-13T02:26:19;15.40;99.90
12152;DHT22;6139;51.274;7.128;2023-07-13T02:27:20;15.40;99.90
12152;DHT22;6139;51.274;7.128;2023-07-13T02:28:24;15.40;99.90
12152;DHT22;6139;51.274;7.128;2023-07-13T02:29:25;15.40;99.90
12152;DHT22;6139;51.274;7.128;2023-07-13T02:30:27;15.40;99.90
12152;DHT22;6139;51.274;7.128;2023-07-13T02:31:30;15.40;99.90
12152;DHT22;6139;51.274;7.128;2023-07-13T02:32:32;15.30;99.90
12152;DHT22;6139;51.274;7.128;2023-07-13T02:33:33;15.30;99.90
12152;DHT22;6139;51.274;7.128;2023-07-13T02:34:35;15.30;99.90
12152;DHT22;6139;51.274;7.128;2023-07-13T02:35:38;15.30;99.90
12152;DHT22;6139;51.274;7.128;2023-07-13T02:36:41;15.30;99.90
12152;DHT22;6139;51.274;7.128;2023-07-13T02:37:42;15.30;99.90
12152;DHT22;6139;51.274;7.128;2023-07-13T02:38:44;15.30;99.90
12152;DHT22;6139;51.274;7.128;2023-07-13T02:39:47;15.30;99.90
12152;DHT22;6139;51.274;7.128;2023-07-13T02:40:48;15.30;99.90
12152;DHT22;6139;51.274;7.128;2023-07-13T02:41:50;15.30;99.90
12152;DHT22;6139;51.274;7.128;2023-07-13T02:42:51;15.30;99.90
12152;DHT22;6139;51.274;7.128;2023-07-13T02:43:53;15.30;99.90
12152;DHT22;6139;51.274;7.128;2023-07-13T02:44:54;15.30;99.90
12152;DHT22;6139;51.274;7.128;2023-07-13T02:45:56;15.30;99.90
12152;DHT22;6139;51.274;7.128;2023-07-13T02:46:57;15.30;99.90
12152;DHT22;6139;51.274;7.128;2023-07-13T02:47:58;15.30;99.90
12152;DHT22;6139;51.274;7.128;2023-07-13T02:49:01;15.20;99.90
12152;DHT22;6139;51.274;7.128;2023-07-13T02:50:02;15.20;99.90
12152;DHT22;6139;51.274;7.128;2023-07-13T02:51:06;15.20;99.90
12152;DHT22;6139;51.274;7.128;2023-07-13T02:52:08;15.20;99.90
12152;DHT22;6139;51.274;7.128;2023-07-13T02:53:10;15.20;99.90
12152;DHT22;6139;51.274;7.128;2023-07-13T02:54:13;15.20;99.90
12152;DHT22;6139;51.274;7.128;2023-07-13T02:55:15;15.20;99.90
12152;DHT22;6139;51.274;7.128;2023-07-13T02:56:21;15.20;99.90
12152;DHT22;6139;51.274;7.128;2023-07-13T02:57:22;15.20;99.90
12152;DHT22;6139;51.274;7.128;2023-07-13T02:58:24;15.20;1.00
12152;DHT22;6139;51.274;7.128;2023-07-13T02:59:26;15.20;99.90
12152;DHT22;6139;51.274;7.128;2023-07-13T03:00:28;15.20;99.90
12152;DHT22;6139;51.274;7.128;2023-07-13T03:01:29;15.20;99.90
12152;DHT22;6139;51.274;7.128;2023-07-13T03:02:35;15.20;99.90
12152;DHT22;6139;51.274;7.128;2023-07-13T03:03:36;15.20;1.00
12152;DHT22;6139;51.274;7.128;2023-07-13T03:04:38;15.20;1.00
12152;DHT22;6139;51.274;7.128;2023-07-13T03:05:43;15.20;1.00
12152;DHT22;6139;51.274;7.128;2023-07-13T03:06:45;15.10;1.00
12152;DHT22;6139;51.274;7.128;2023-07-13T03:07:48;15.10;1.00
12152;DHT22;6139;51.274;7.128;2023-07-13T03:08:49;15.10;1.00
12152;DHT22;6139;51.274;7.128;2023-07-13T03:09:55;15.10;99.90
12152;DHT22;6139;51.274;7.128;2023-07-13T03:11:00;15.10;1.00
12152;DHT22;6139;51.274;7.128;2023-07-13T03:12:04;15.10;1.00
12152;DHT22;6139;51.274;7.128;2023-07-13T03:13:06;15.10;1.00
12152;DHT22;6139;51.274;7.128;2023-07-13T03:14:09;15.10;1.00
12152;DHT22;6139;51.274;7.128;2023-07-13T03:15:12;15.10;1.00
12152;DHT22;6139;51.274;7.128;2023-07-13T03:16:17;15.10;1.00
12152;DHT22;6139;51.274;7.128;2023-07-13T03:17:20;15.10;1.00
12152;DHT22;6139;51.274;7.128;2023-07-13T03:18:22;15.00;1.00
12152;DHT22;6139;51.274;7.128;2023-07-13T03:19:23;15.00;1.00
12152;DHT22;6139;51.274;7.128;2023-07-13T03:20:26;15.00;1.00
12152;DHT22;6139;51.274;7.128;2023-07-13T03:21:27;15.10;1.00
12152;DHT22;6139;51.274;7.128;2023-07-13T03:22:29;15.00;1.00
12152;DHT22;6139;51.274;7.128;2023-07-13T03:23:30;15.00;1.00
12152;DHT22;6139;51.274;7.128;2023-07-13T03:24:32;15.00;1.00
12152;DHT22;6139;51.274;7.128;2023-07-13T03:25:36;15.00;1.00
12152;DHT22;6139;51.274;7.128;2023-07-13T03:26:38;15.00;1.00
12152;DHT22;6139;51.274;7.128;2023-07-13T03:27:40;15.00;1.00
12152;DHT22;6139;51.274;7.128;2023-07-13T03:28:43;15.00;1.00
12152;DHT22;6139;51.274;7.128;2023-07-13T03:29:50;15.00;1.00
12152;DHT22;6139;51.274;7.128;2023-07-13T03:30:59;15.00;1.00
12152;DHT22;6139;51.274;7.128;2023-07-13T03:32:02;15.00;1.00
12152;DHT22;6139;51.274;7.128;2023-07-13T03:33:03;15.00;1.00
12152;DHT22;6139;51.274;7.128;2023-07-13T03:34:05;15.00;1.00
12152;DHT22;6139;51.274;7.128;2023-07-13T03:35:08;15.00;1.00
12152;DHT22;6139;51.274;7.128;2023-07-13T03:36:13;15.00;1.00
12152;DHT22;6139;51.274;7.128;2023-07-13T03:37:16;15.00;1.00
12152;DHT22;6139;51.274;7.128;2023-07-13T03:38:17;15.00;1.00
12152;DHT22;6139;51.274;7.128;2023-07-13T03:39:18;15.00;1.00
12152;DHT22;6139;51.274;7.128;2023-07-13T03:40:23;15.00;1.00
12152;DHT22;6139;51.274;7.128;2023-07-13T03:41:27;15.00;1.00
12152;DHT22;6139;51.274;7.128;2023-07-13T03:42:29;14.90;1.00
12152;DHT22;6139;51.274;7.128;2023-07-13T03:43:31;14.90;1.00
12152;DHT22;6139;51.274;7.128;2023-07-13T03:44:32;14.90;1.00
12152;DHT22;6139;51.274;7.128;2023-07-13T03:45:34;15.00;1.00
12152;DHT22;6139;51.274;7.128;2023-07-13T03:46:35;15.00;1.00
12152;DHT22;6139;51.274;7.128;2023-07-13T03:47:36;15.00;1.00
12152;DHT22;6139;51.274;7.128;2023-07-13T03:48:40;14.90;1.00
12152;DHT22;6139;51.274;7.128;2023-07-13T03:49:43;14.90;1.00
12152;DHT22;6139;51.274;7.128;2023-07-13T03:50:47;14.90;1.00
12152;DHT22;6139;51.274;7.128;2023-07-13T03:51:48;14.90;1.00
12152;DHT22;6139;51.274;7.128;2023-07-13T03:52:50;14.90;1.00
12152;DHT22;6139;51.274;7.128;2023-07-13T03:53:51;14.90;1.00
12152;DHT22;6139;51.274;7.128;2023-07-13T03:54:54;14.90;1.00
12152;DHT22;6139;51.274;7.128;2023-07-13T03:55:56;14.90;1.00
12152;DHT22;6139;51.274;7.128;2023-07-13T03:57:00;14.90;1.00
12152;DHT22;6139;51.274;7.128;2023-07-13T03:58:25;14.90;1.00
12152;DHT22;6139;51.274;7.128;2023-07-13T03:59:29;14.90;1.00
12152;DHT22;6139;51.274;7.128;2023-07-13T04:00:30;14.90;1.00
12152;DHT22;6139;51.274;7.128;2023-07-13T04:01:34;14.90;1.00
12152;DHT22;6139;51.274;7.128;2023-07-13T04:02:35;14.90;1.00
12152;DHT22;6139;51.274;7.128;2023-07-13T04:03:38;15.00;1.00
12152;DHT22;6139;51.274;7.128;2023-07-13T04:04:39;15.00;1.00
12152;DHT22;6139;51.274;7.128;2023-07-13T04:05:41;15.00;1.00
12152;DHT22;6139;51.274;7.128;2023-07-13T04:06:42;14.90;1.00
12152;DHT22;6139;51.274;7.128;2023-07-13T04:07:46;14.90;1.00
12152;DHT22;6139;51.274;7.128;2023-07-13T04:08:48;15.00;1.00
12152;DHT22;6139;51.274;7.128;2023-07-13T04:09:51;14.90;1.00
12152;DHT22;6139;51.274;7.128;2023-07-13T04:10:52;14.90;1.00
12152;DHT22;6139;51.274;7.128;2023-07-13T04:11:54;14.90;1.00
12152;DHT22;6139;51.274;7.128;2023-07-13T04:12:56;15.00;1.00
12152;DHT22;6139;51.274;7.128;2023-07-13T04:13:58;15.00;1.00
12152;DHT22;6139;51.274;7.128;2023-07-13T04:14:59;15.00;1.00
12152;DHT22;6139;51.274;7.128;2023-07-13T04:16:01;14.90;1.00
12152;DHT22;6139;51.274;7.128;2023-07-13T04:17:03;15.00;1.00
12152;DHT22;6139;51.274;7.128;2023-07-13T04:18:05;15.00;1.00
12152;DHT22;6139;51.274;7.128;2023-07-13T04:19:05;15.00;1.00
12152;DHT22;6139;51.274;7.128;2023-07-13T04:20:08;15.00;1.00
12152;DHT22;6139;51.274;7.128;2023-07-13T04:21:09;15.00;1.00
12152;DHT22;6139;51.274;7.128;2023-07-13T04:22:11;15.00;1.00
12152;DHT22;6139;51.274;7.128;2023-07-13T04:23:12;15.00;1.00
12152;DHT22;6139;51.274;7.128;2023-07-13T04:24:14;15.00;1.00
12152;DHT22;6139;51.274;7.128;2023-07-13T04:25:15;15.00;1.00
12152;DHT22;6139;51.274;7.128;2023-07-13T04:26:17;15.00;1.00
12152;DHT22;6139;51.274;7.128;2023-07-13T04:27:18;15.00;1.00
12152;DHT22;6139;51.274;7.128;2023-07-13T04:28:21;14.90;1.00
12152;DHT22;6139;51.274;7.128;2023-07-13T04:29:22;15.00;1.00
12152;DHT22;6139;51.274;7.128;2023-07-13T04:30:24;15.00;1.00
12152;DHT22;6139;51.274;7.128;2023-07-13T04:31:25;15.00;1.00
12152;DHT22;6139;51.274;7.128;2023-07-13T04:32:27;15.00;1.00
12152;DHT22;6139;51.274;7.128;2023-07-13T04:33:28;14.90;1.00
12152;DHT22;6139;51.274;7.128;2023-07-13T04:34:30;15.00;1.00
12152;DHT22;6139;51.274;7.128;2023-07-13T04:35:31;14.90;1.00
12152;DHT22;6139;51.274;7.128;2023-07-13T04:36:33;14.90;1.00
12152;DHT22;6139;51.274;7.128;2023-07-13T04:37:38;14.90;1.00
12152;DHT22;6139;51.274;7.128;2023-07-13T04:38:40;15.00;1.00
12152;DHT22;6139;51.274;7.128;2023-07-13T04:39:41;15.00;1.00
12152;DHT22;6139;51.274;7.128;2023-07-13T04:40:44;15.00;1.00
12152;DHT22;6139;51.274;7.128;2023-07-13T04:41:46;15.00;1.00
12152;DHT22;6139;51.274;7.128;2023-07-13T04:42:47;15.00;1.00
12152;DHT22;6139;51.274;7.128;2023-07-13T04:43:50;15.10;1.00
12152;DHT22;6139;51.274;7.128;2023-07-13T04:44:52;15.10;1.00
12152;DHT22;6139;51.274;7.128;2023-07-13T04:45:53;15.10;1.00
12152;DHT22;6139;51.274;7.128;2023-07-13T04:46:55;15.10;1.00
12152;DHT22;6139;51.274;7.128;2023-07-13T04:47:56;15.10;1.00
12152;DHT22;6139;51.274;7.128;2023-07-13T04:48:58;15.10;1.00
12152;DHT22;6139;51.274;7.128;2023-07-13T04:49:59;15.20;1.00
12152;DHT22;6139;51.274;7.128;2023-07-13T04:51:02;15.20;1.00
12152;DHT22;6139;51.274;7.128;2023-07-13T04:52:04;15.20;1.00
12152;DHT22;6139;51.274;7.128;2023-07-13T04:53:06;15.20;1.00
12152;DHT22;6139;51.274;7.128;2023-07-13T04:54:07;15.20;1.00
12152;DHT22;6139;51.274;7.128;2023-07-13T04:55:08;15.20;1.00
12152;DHT22;6139;51.274;7.128;2023-07-13T04:56:09;15.20;1.00
12152;DHT22;6139;51.274;7.128;2023-07-13T04:57:10;15.20;1.00
12152;DHT22;6139;51.274;7.128;2023-07-13T04:58:12;15.20;1.00
12152;DHT22;6139;51.274;7.128;2023-07-13T04:59:15;15.20;1.00
12152;DHT22;6139;51.274;7.128;2023-07-13T05:00:17;15.20;1.00
12152;DHT22;6139;51.274;7.128;2023-07-13T05:01:18;15.20;1.00
12152;DHT22;6139;51.274;7.128;2023-07-13T05:02:21;15.20;1.00
12152;DHT22;6139;51.274;7.128;2023-07-13T05:03:22;15.20;1.00
12152;DHT22;6139;51.274;7.128;2023-07-13T05:04:24;15.20;1.00
12152;DHT22;6139;51.274;7.128;2023-07-13T05:05:26;15.20;1.00
12152;DHT22;6139;51.274;7.128;2023-07-13T05:06:28;15.20;1.00
12152;DHT22;6139;51.274;7.128;2023-07-13T05:07:31;15.20;1.00
12152;DHT22;6139;51.274;7.128;2023-07-13T05:08:33;15.20;1.00
12152;DHT22;6139;51.274;7.128;2023-07-13T05:09:34;15.30;1.00
12152;DHT22;6139;51.274;7.128;2023-07-13T05:10:36;15.30;1.00
12152;DHT22;6139;51.274;7.128;2023-07-13T05:11:37;15.30;1.00
12152;DHT22;6139;51.274;7.128;2023-07-13T05:12:39;15.30;1.00
12152;DHT22;6139;51.274;7.128;2023-07-13T05:13:40;15.40;1.00
12152;DHT22;6139;51.274;7.128;2023-07-13T05:14:43;15.40;1.00
12152;DHT22;6139;51.274;7.128;2023-07-13T05:15:44;15.40;1.00
12152;DHT22;6139;51.274;7.128;2023-07-13T05:16:46;15.50;1.00
12152;DHT22;6139;51.274;7.128;2023-07-13T05:17:47;15.50;1.00
12152;DHT22;6139;51.274;7.128;2023-07-13T05:18:49;15.50;1.00
12152;DHT22;6139;51.274;7.128;2023-07-13T05:19:50;15.60;1.00
12152;DHT22;6139;51.274;7.128;2023-07-13T05:20:57;15.60;1.00
12152;DHT22;6139;51.274;7.128;2023-07-13T05:21:59;15.60;1.00
12152;DHT22;6139;51.274;7.128;2023-07-13T05:23:01;15.50;1.00
12152;DHT22;6139;51.274;7.128;2023-07-13T05:24:03;15.50;1.00
12152;DHT22;6139;51.274;7.128;2023-07-13T05:25:06;15.50;1.00
12152;DHT22;6139;51.274;7.128;2023-07-13T05:26:09;15.50;1.00
12152;DHT22;6139;51.274;7.128;2023-07-13T05:27:10;15.50;1.00
12152;DHT22;6139;51.274;7.128;2023-07-13T05:28:11;15.50;1.00
12152;DHT22;6139;51.274;7.128;2023-07-13T05:29:13;15.60;1.00
12152;DHT22;6139;51.274;7.128;2023-07-13T05:30:16;15.50;1.00
12152;DHT22;6139;51.274;7.128;2023-07-13T05:31:18;15.60;1.00
12152;DHT22;6139;51.274;7.128;2023-07-13T05:32:19;15.60;1.00
12152;DHT22;6139;51.274;7.128;2023-07-13T05:33:21;15.60;1.00
12152;DHT22;6139;51.274;7.128;2023-07-13T05:34:22;15.60;1.00
12152;DHT22;6139;51.274;7.128;2023-07-13T05:35:24;15.60;1.00
12152;DHT22;6139;51.274;7.128;2023-07-13T05:36:25;15.60;1.00
12152;DHT22;6139;51.274;7.128;2023-07-13T05:37:27;15.60;1.00
12152;DHT22;6139;51.274;7.128;2023-07-13T05:38:28;15.60;1.00
12152;DHT22;6139;51.274;7.128;2023-07-13T05:39:30;15.60;1.00
12152;DHT22;6139;51.274;7.128;2023-07-13T05:40:31;15.70;1.00
12152;DHT22;6139;51.274;7.128;2023-07-13T05:41:33;15.70;1.00
12152;DHT22;6139;51.274;7.128;2023-07-13T05:42:34;15.70;1.00
12152;DHT22;6139;51.274;7.128;2023-07-13T05:43:35;15.80;1.00
12152;DHT22;6139;51.274;7.128;2023-07-13T05:44:36;15.80;1.00
12152;DHT22;6139;51.274;7.128;2023-07-13T05:45:40;15.80;1.00
12152;DHT22;6139;51.274;7.128;2023-07-13T05:46:41;15.80;1.00
12152;DHT22;6139;51.274;7.128;2023-07-13T05:47:43;15.80;1.00
12152;DHT22;6139;51.274;7.128;2023-07-13T05:48:44;15.80;1.00
12152;DHT22;6139;51.274;7.128;2023-07-13T05:49:46;15.80;1.00
12152;DHT22;6139;51.274;7.128;2023-07-13T05:50:47;15.80;1.00
12152;DHT22;6139;51.274;7.128;2023-07-13T05:51:49;15.80;1.00
12152;DHT22;6139;51.274;7.128;2023-07-13T05:52:50;15.80;1.00
12152;DHT22;6139;51.274;7.128;2023-07-13T05:53:53;15.80;1.00
12152;DHT22;6139;51.274;7.128;2023-07-13T05:54:54;15.80;1.00
12152;DHT22;6139;51.274;7.128;2023-07-13T05:55:56;15.80;1.00
12152;DHT22;6139;51.274;7.128;2023-07-13T05:56:57;15.80;1.00
12152;DHT22;6139;51.274;7.128;2023-07-13T05:57:59;15.80;1.00
12152;DHT22;6139;51.274;7.128;2023-07-13T05:59:00;15.80;1.00
12152;DHT22;6139;51.274;7.128;2023-07-13T06:00:02;15.80;1.00
12152;DHT22;6139;51.274;7.128;2023-07-13T06:01:15;15.90;1.00
12152;DHT22;6139;51.274;7.128;2023-07-13T06:02:17;15.80;1.00
12152;DHT22;6139;51.274;7.128;2023-07-13T06:03:18;15.90;1.00
12152;DHT22;6139;51.274;7.128;2023-07-13T06:04:20;15.90;1.00
12152;DHT22;6139;51.274;7.128;2023-07-13T06:05:21;15.90;1.00
12152;DHT22;6139;51.274;7.128;2023-07-13T06:06:23;15.90;1.00
12152;DHT22;6139;51.274;7.128;2023-07-13T06:07:24;16.00;1.00
12152;DHT22;6139;51.274;7.128;2023-07-13T06:08:26;16.00;1.00
12152;DHT22;6139;51.274;7.128;2023-07-13T06:09:27;16.00;1.00
12152;DHT22;6139;51.274;7.128;2023-07-13T06:10:31;16.00;1.00
12152;DHT22;6139;51.274;7.128;2023-07-13T06:11:32;16.00;1.00
12152;DHT22;6139;51.274;7.128;2023-07-13T06:12:35;16.00;1.00
12152;DHT22;6139;51.274;7.128;2023-07-13T06:13:36;16.00;1.00
12152;DHT22;6139;51.274;7.128;2023-07-13T06:14:38;16.00;1.00
12152;DHT22;6139;51.274;7.128;2023-07-13T06:15:39;16.00;1.00
12152;DHT22;6139;51.274;7.128;2023-07-13T06:16:42;16.00;1.00
12152;DHT22;6139;51.274;7.128;2023-07-13T06:17:43;16.00;1.00
12152;DHT22;6139;51.274;7.128;2023-07-13T06:18:45;16.00;1.00
12152;DHT22;6139;51.274;7.128;2023-07-13T06:19:46;15.90;1.00
12152;DHT22;6139;51.274;7.128;2023-07-13T06:20:48;15.90;1.00
12152;DHT22;6139;51.274;7.128;2023-07-13T06:21:49;15.90;1.00
12152;DHT22;6139;51.274;7.128;2023-07-13T06:22:51;15.90;1.00
12152;DHT22;6139;51.274;7.128;2023-07-13T06:23:52;15.90;1.00
12152;DHT22;6139;51.274;7.128;2023-07-13T06:24:54;15.90;1.00
12152;DHT22;6139;51.274;7.128;2023-07-13T06:25:55;15.90;1.00
12152;DHT22;6139;51.274;7.128;2023-07-13T06:26:57;15.90;1.00
12152;DHT22;6139;51.274;7.128;2023-07-13T06:27:59;15.90;1.00
12152;DHT22;6139;51.274;7.128;2023-07-13T06:29:00;15.90;1.00
12152;DHT22;6139;51.274;7.128;2023-07-13T06:30:02;15.90;1.00
12152;DHT22;6139;51.274;7.128;2023-07-13T06:31:06;15.90;1.00
12152;DHT22;6139;51.274;7.128;2023-07-13T06:32:10;16.00;1.00
12152;DHT22;6139;51.274;7.128;2023-07-13T06:33:11;16.00;1.00
12152;DHT22;6139;51.274;7.128;2023-07-13T06:34:13;16.10;1.00
12152;DHT22;6139;51.274;7.128;2023-07-13T06:35:14;16.10;1.00
12152;DHT22;6139;51.274;7.128;2023-07-13T06:36:16;16.10;1.00
12152;DHT22;6139;51.274;7.128;2023-07-13T06:37:17;16.10;1.00
12152;DHT22;6139;51.274;7.128;2023-07-13T06:38:19;16.10;1.00
12152;DHT22;6139;51.274;7.128;2023-07-13T06:39:20;16.20;1.00
12152;DHT22;6139;51.274;7.128;2023-07-13T06:40:22;16.30;1.00
12152;DHT22;6139;51.274;7.128;2023-07-13T06:41:23;16.30;1.00
12152;DHT22;6139;51.274;7.128;2023-07-13T06:42:26;16.40;1.00
12152;DHT22;6139;51.274;7.128;2023-07-13T06:43:27;16.40;1.00
12152;DHT22;6139;51.274;7.128;2023-07-13T06:44:30;16.40;1.00
12152;DHT22;6139;51.274;7.128;2023-07-13T06:45:35;16.40;1.00